Time;durP1;ratioP1;P1;durP2;ratioP2;P2;SDS_P1;SDS_P2;PMS_P1;PMS_P2;Temp;Humidity;BMP_temperature;BMP_pressure;BME280_temperature;BME280_humidity;BME280_pressure;Samples;Min_cycle;Max_cycle;Signal;HPM_P1;HPM_P2
2021/05/25 00:00:36;;;;;;;3.83;1.60;;;18.30;71.90;;;;;;5027260;28;20029;-73
2021/05/25 00:03:21;;;;;;;3.97;1.77;;;18.30;72.20;;;;;;5024237;28;20540;-73
2021/05/25 00:06:05;;;;;;;2.50;1.42;;;18.30;72.80;;;;;;5005692;28;20037;-73
2021/05/25 00:08:49;;;;;;;2.58;1.52;;;18.20;73.10;;;;;;5031526;28;20040;-73
2021/05/25 00:11:33;;;;;;;2.10;1.40;;;18.20;73.50;;;;;;5017621;28;20282;-73
2021/05/25 00:14:20;;;;;;;2.78;1.60;;;18.20;74.00;;;;;;4996321;28;20072;-74
2021/05/25 00:17:03;;;;;;;3.53;1.60;;;18.20;74.10;;;;;;5010475;28;20096;-73
2021/05/25 00:19:47;;;;;;;5.10;1.70;;;18.20;73.90;;;;;;4994912;28;20038;-72
2021/05/25 00:22:32;;;;;;;2.33;1.47;;;18.20;73.70;;;;;;5011623;28;20052;-73
2021/05/25 00:25:17;;;;;;;4.13;1.50;;;18.20;73.40;;;;;;5012217;28;20073;-73
2021/05/25 00:28:01;;;;;;;;;;;18.20;72.50;;;;;;4995717;28;20113;-73
2021/05/25 00:30:46;;;;;;;4.13;2.28;;;18.20;72.00;;;;;;4998096;28;19964;-73
2021/05/25 00:33:30;;;;;;;3.53;1.52;;;18.10;71.50;;;;;;5013944;28;20437;-73
2021/05/25 00:36:14;;;;;;;4.63;1.90;;;18.10;71.10;;;;;;4986070;28;20517;-73
2021/05/25 00:38:58;;;;;;;4.77;1.80;;;18.00;70.70;;;;;;4994865;28;20046;-73
2021/05/25 00:41:42;;;;;;;3.10;1.65;;;17.90;70.70;;;;;;5022172;28;20120;-74
2021/05/25 00:44:26;;;;;;;3.90;1.60;;;17.80;70.60;;;;;;5034549;28;20044;-73
2021/05/25 00:47:10;;;;;;;4.70;2.80;;;17.80;70.50;;;;;;5016317;28;20041;-73
2021/05/25 00:49:36;;;;;;;3.17;1.95;;;17.80;70.80;;;;;;5004552;28;20030;-73
2021/05/25 00:52:01;;;;;;;4.72;1.77;;;17.70;70.70;;;;;;5011564;28;20068;-73
2021/05/25 00:54:27;;;;;;;4.75;2.53;;;17.70;70.90;;;;;;5005673;28;20030;-73
2021/05/25 00:57:11;;;;;;;5.28;3.03;;;17.60;71.20;;;;;;5022017;28;20064;-74
2021/05/25 00:59:56;;;;;;;7.20;4.30;;;17.50;71.50;;;;;;5031200;28;20161;-73
2021/05/25 01:02:40;;;;;;;9.02;4.50;;;17.50;72.00;;;;;;5007219;28;20108;-73
2021/05/25 01:05:25;;;;;;;6.35;3.00;;;17.50;72.60;;;;;;5000312;28;20041;-73
2021/05/25 01:08:11;;;;;;;3.58;2.15;;;17.40;72.90;;;;;;5012840;28;20045;-73
2021/05/25 01:11:29;;;;;;;11.10;4.93;;;17.40;73.50;;;;;;5003192;28;20520;-75
2021/05/25 01:13:52;;;;;;;4.05;1.77;;;17.30;74.50;;;;;;4999189;28;20042;-72
2021/05/25 01:16:36;;;;;;;5.70;3.13;;;17.30;75.00;;;;;;5028068;28;20111;-77
2021/05/25 01:19:21;;;;;;;4.70;1.87;;;17.30;75.70;;;;;;5024563;28;20064;-75
2021/05/25 01:22:05;;;;;;;3.15;1.38;;;17.20;76.40;;;;;;5006848;28;20112;-74
2021/05/25 01:24:49;;;;;;;4.88;2.53;;;17.10;76.70;;;;;;5004797;28;20622;-76
2021/05/25 01:27:33;;;;;;;2.78;1.45;;;17.00;77.50;;;;;;5013245;28;20037;-76
2021/05/25 01:30:19;;;;;;;2.60;1.30;;;17.00;77.90;;;;;;5011481;28;20684;-75
2021/05/25 01:33:04;;;;;;;4.13;1.88;;;16.90;78.40;;;;;;5013623;28;20076;-76
2021/05/25 01:35:49;;;;;;;3.38;1.40;;;16.90;79.30;;;;;;5023177;28;20542;-77
2021/05/25 01:38:34;;;;;;;5.07;2.00;;;16.90;79.60;;;;;;5027918;28;20501;-77
2021/05/25 01:41:18;;;;;;;2.42;1.40;;;16.80;79.90;;;;;;4993526;28;20594;-76
2021/05/25 01:44:02;;;;;;;3.75;2.00;;;16.80;80.50;;;;;;5002144;28;20165;-77
2021/05/25 01:46:48;;;;;;;4.10;1.40;;;16.70;81.40;;;;;;5013336;28;20553;-76
2021/05/25 01:49:32;;;;;;;3.50;1.60;;;16.70;81.90;;;;;;5026874;28;20049;-76
2021/05/25 01:52:20;;;;;;;3.78;1.52;;;16.70;82.30;;;;;;5012393;28;20097;-75
2021/05/25 01:55:07;;;;;;;4.80;1.42;;;16.70;82.70;;;;;;5013147;28;20065;-75
2021/05/25 01:57:51;;;;;;;3.78;1.98;;;16.60;83.10;;;;;;5017076;28;20057;-76
2021/05/25 02:00:38;;;;;;;5.10;1.60;;;16.70;83.50;;;;;;5010783;28;20036;-75
2021/05/25 02:03:24;;;;;;;3.13;1.60;;;16.60;83.90;;;;;;4999627;28;20050;-75
2021/05/25 02:06:09;;;;;;;3.17;1.55;;;16.60;84.80;;;;;;4999263;28;20084;-74
2021/05/25 02:08:55;;;;;;;3.30;1.80;;;16.50;85.60;;;;;;5012721;28;20469;-73
2021/05/25 02:11:39;;;;;;;3.17;1.85;;;16.50;86.30;;;;;;4994964;28;20127;-74
2021/05/25 02:14:23;;;;;;;4.07;1.70;;;16.50;87.10;;;;;;5012344;28;20088;-74
2021/05/25 02:17:08;;;;;;;;;;;16.40;87.50;;;;;;5012091;28;20069;-74
2021/05/25 02:19:53;;;;;;;2.42;1.33;;;16.40;86.80;;;;;;5003922;28;19917;-75
2021/05/25 02:22:37;;;;;;;3.63;1.48;;;16.30;88.10;;;;;;5014304;28;20033;-74
2021/05/25 02:25:21;;;;;;;3.10;1.85;;;16.20;88.70;;;;;;5016219;28;20036;-75
2021/05/25 02:28:07;;;;;;;4.30;2.03;;;16.20;89.00;;;;;;5026124;28;20447;-75
2021/05/25 02:30:52;;;;;;;3.38;1.95;;;16.10;89.70;;;;;;5005417;28;20049;-74
2021/05/25 02:33:36;;;;;;;3.97;1.73;;;16.10;90.10;;;;;;5026926;28;20080;-75
2021/05/25 02:36:20;;;;;;;3.50;1.70;;;16.20;90.40;;;;;;4993014;28;20097;-74
2021/05/25 02:39:05;;;;;;;5.03;1.73;;;16.10;90.80;;;;;;5002897;28;20044;-75
2021/05/25 02:41:49;;;;;;;2.65;1.60;;;16.10;90.80;;;;;;5026533;28;20134;-75
2021/05/25 02:44:33;;;;;;;3.60;2.00;;;16.10;91.00;;;;;;4999625;28;20744;-76
2021/05/25 02:47:17;;;;;;;3.25;1.45;;;16.00;91.10;;;;;;5016383;28;20033;-75
2021/05/25 02:50:08;;;;;;;4.70;2.03;;;16.00;91.10;;;;;;5003779;28;20057;-76
2021/05/25 02:52:53;;;;;;;4.97;1.88;;;16.00;91.30;;;;;;5009293;28;20049;-76
2021/05/25 02:55:40;;;;;;;4.05;2.00;;;16.00;91.60;;;;;;5022319;28;20044;-76
2021/05/25 02:58:24;;;;;;;2.95;1.58;;;16.00;91.90;;;;;;5023031;28;20505;-76
2021/05/25 03:01:08;;;;;;;4.32;2.08;;;16.00;91.90;;;;;;5023088;28;20043;-76
2021/05/25 03:03:52;;;;;;;3.90;1.77;;;16.00;92.10;;;;;;4994918;28;20045;-76
2021/05/25 03:06:36;;;;;;;4.43;1.85;;;16.00;92.30;;;;;;5030355;28;20082;-76
2021/05/25 03:09:20;;;;;;;3.58;1.90;;;16.00;92.40;;;;;;5005554;28;20036;-76
2021/05/25 03:12:05;;;;;;;6.47;2.20;;;16.00;92.50;;;;;;5005133;28;20036;-75
2021/05/25 03:14:39;;;;;;;5.03;2.30;;;16.00;92.60;;;;;;5011745;28;20092;-76
2021/05/25 03:17:24;;;;;;;3.53;2.10;;;15.90;92.70;;;;;;5011406;28;20402;-76
2021/05/25 03:20:10;;;;;;;4.55;2.33;;;16.00;93.00;;;;;;5012566;28;20061;-75
2021/05/25 03:22:55;;;;;;;4.57;1.95;;;15.90;92.90;;;;;;5033085;28;20032;-74
2021/05/25 03:25:40;;;;;;;;;;;15.90;93.00;;;;;;5011157;28;20088;-75
2021/05/25 03:28:24;;;;;;;3.90;2.03;;;15.90;92.40;;;;;;5007934;28;19920;-75
2021/05/25 03:31:08;;;;;;;4.07;1.73;;;15.90;92.90;;;;;;4992196;28;20138;-75
2021/05/25 03:33:52;;;;;;;3.72;1.80;;;15.80;93.10;;;;;;4992776;28;20041;-75
2021/05/25 03:36:36;;;;;;;3.25;1.90;;;15.80;93.20;;;;;;5016885;28;20068;-75
2021/05/25 03:39:20;;;;;;;3.90;1.90;;;15.80;93.40;;;;;;4998357;28;20060;-74
2021/05/25 03:42:05;;;;;;;3.63;1.80;;;15.90;93.40;;;;;;5008460;28;20049;-75
2021/05/25 03:44:50;;;;;;;3.70;1.75;;;15.80;93.50;;;;;;4995259;28;20214;-74
2021/05/25 03:47:33;;;;;;;2.80;1.85;;;15.80;93.50;;;;;;5007449;28;20101;-76
2021/05/25 03:50:18;;;;;;;4.38;1.90;;;15.80;93.50;;;;;;5009367;28;20507;-76
2021/05/25 03:53:02;;;;;;;5.75;1.77;;;15.80;93.60;;;;;;5011414;28;20394;-76
2021/05/25 03:55:54;;;;;;;3.22;1.75;;;15.80;93.60;;;;;;5006306;28;20095;-76
2021/05/25 03:58:51;;;;;;;5.68;1.80;;;15.80;93.70;;;;;;5010259;28;20032;-78
2021/05/25 04:01:36;;;;;;;5.22;2.00;;;15.80;93.70;;;;;;5005193;28;20414;-78
2021/05/25 04:04:20;;;;;;;2.95;1.95;;;15.80;93.70;;;;;;5010819;28;20044;-77
2021/05/25 04:07:04;;;;;;;3.13;1.90;;;15.80;93.70;;;;;;5011079;28;20505;-77
2021/05/25 04:09:48;;;;;;;4.07;1.80;;;15.70;93.70;;;;;;4999077;28;20053;-78
2021/05/25 04:12:32;;;;;;;3.88;2.20;;;15.80;93.70;;;;;;5001052;28;20110;-78
2021/05/25 04:15:17;;;;;;;3.85;2.00;;;15.80;93.80;;;;;;5012520;28;20037;-77
2021/05/25 04:18:02;;;;;;;3.67;2.13;;;15.80;93.80;;;;;;5011627;28;20112;-78
2021/05/25 04:20:47;;;;;;;3.50;1.67;;;15.90;93.90;;;;;;5008677;28;20040;-76
2021/05/25 04:23:31;;;;;;;4.55;2.45;;;15.90;93.90;;;;;;4997653;28;20037;-75
2021/05/25 04:26:16;;;;;;;5.45;2.33;;;15.90;93.80;;;;;;4991660;28;20045;-75
2021/05/25 04:29:00;;;;;;;4.40;2.30;;;15.90;93.80;;;;;;5007727;28;20044;-75
2021/05/25 04:31:44;;;;;;;7.82;2.20;;;15.90;93.70;;;;;;5013466;28;20044;-75
2021/05/25 04:34:28;;;;;;;4.75;2.15;;;15.90;93.80;;;;;;5017163;28;20114;-74
2021/05/25 04:37:12;;;;;;;4.13;2.20;;;15.90;93.80;;;;;;5000164;28;20091;-75
2021/05/25 04:39:56;;;;;;;4.57;1.95;;;15.90;93.80;;;;;;5013265;28;20048;-75
2021/05/25 04:42:40;;;;;;;4.20;1.85;;;15.90;93.70;;;;;;5005758;28;20049;-75
2021/05/25 04:45:24;;;;;;;4.43;1.90;;;15.90;93.70;;;;;;5008791;28;20509;-74
2021/05/25 04:48:11;;;;;;;6.47;1.90;;;15.90;93.60;;;;;;5005357;28;20096;-75
2021/05/25 04:50:55;;;;;;;3.53;1.98;;;15.80;93.50;;;;;;5011940;28;20056;-75
2021/05/25 04:53:39;;;;;;;6.28;2.05;;;15.90;93.40;;;;;;4993897;28;20037;-73
2021/05/25 04:56:23;;;;;;;3.85;1.75;;;15.90;93.30;;;;;;5021524;28;20137;-73
2021/05/25 04:59:08;;;;;;;3.28;2.28;;;15.90;93.20;;;;;;5026568;28;20033;-74
2021/05/25 05:01:52;;;;;;;3.60;1.88;;;15.90;93.20;;;;;;5003513;28;20083;-78
2021/05/25 05:04:35;;;;;;;2.40;1.70;;;16.00;93.30;;;;;;5004148;28;20033;-78
2021/05/25 05:07:20;;;;;;;3.03;1.85;;;16.10;93.30;;;;;;4998386;28;20033;-78
2021/05/25 05:10:05;;;;;;;5.00;2.00;;;16.10;93.30;;;;;;5027239;28;20049;-76
2021/05/25 05:12:49;;;;;;;2.97;1.98;;;16.10;93.20;;;;;;5031337;28;20497;-76
2021/05/25 05:15:30;;;;;;;3.35;2.13;;;16.20;93.20;;;;;;5029410;28;20033;-75
2021/05/25 05:18:14;;;;;;;4.18;2.38;;;16.20;93.20;;;;;;5006288;28;20046;-76
2021/05/25 05:20:58;;;;;;;2.73;1.97;;;16.30;93.20;;;;;;5012056;28;20200;-77
2021/05/25 05:23:42;;;;;;;4.53;2.15;;;16.30;93.00;;;;;;5012438;28;20264;-77
2021/05/25 05:26:27;;;;;;;6.45;2.08;;;16.30;92.90;;;;;;5014029;28;20116;-77
2021/05/25 05:29:11;;;;;;;3.78;2.25;;;16.30;92.80;;;;;;5006448;28;20034;-77
2021/05/25 05:31:55;;;;;;;4.07;2.00;;;16.30;92.70;;;;;;4993852;28;20315;-77
2021/05/25 05:34:39;;;;;;;2.70;1.83;;;16.20;92.70;;;;;;5011324;28;20040;-77
2021/05/25 05:37:23;;;;;;;4.32;2.35;;;16.20;92.50;;;;;;5013286;28;20108;-78
2021/05/25 05:40:27;;;;;;;3.35;2.00;;;16.20;92.30;;;;;;5015842;28;20125;-80
2021/05/25 05:43:11;;;;;;;5.82;2.10;;;16.20;92.20;;;;;;5037128;28;20044;-79
2021/05/25 05:45:58;;;;;;;7.60;1.93;;;16.20;92.00;;;;;;5018854;28;20036;-80
2021/05/25 05:48:42;;;;;;;3.67;1.65;;;16.20;91.90;;;;;;5017916;28;20052;-82
2021/05/25 05:51:26;;;;;;;3.93;2.13;;;16.20;91.70;;;;;;4999533;28;20045;-80
2021/05/25 05:54:11;;;;;;;2.13;1.60;;;16.10;91.60;;;;;;5030411;28;20135;-76
2021/05/25 05:56:56;;;;;;;;;;;16.10;91.60;;;;;;5025394;28;20040;-74
2021/05/25 05:59:40;;;;;;;3.47;1.30;;;16.20;91.60;;;;;;5021127;28;19920;-79
2021/05/25 06:02:24;;;;;;;2.70;1.60;;;16.20;91.50;;;;;;5024454;28;20048;-77
2021/05/25 06:05:09;;;;;;;2.58;1.70;;;16.10;91.30;;;;;;5010489;28;20045;-77
2021/05/25 06:07:53;;;;;;;2.85;1.35;;;16.10;91.20;;;;;;5008296;28;20162;-77
2021/05/25 06:10:39;;;;;;;7.25;1.90;;;16.10;91.10;;;;;;5011214;28;20049;-78
2021/05/25 06:13:24;;;;;;;2.08;1.52;;;16.10;91.00;;;;;;5004399;28;20490;-78
2021/05/25 06:16:08;;;;;;;;;;;16.10;90.70;;;;;;5006551;28;20056;-77
2021/05/25 06:18:52;;;;;;;1.50;1.13;;;16.10;90.60;;;;;;4999324;28;20308;-78
2021/05/25 06:21:38;;;;;;;4.22;1.48;;;16.00;90.50;;;;;;5018205;28;20035;-78
2021/05/25 06:24:22;;;;;;;1.90;1.40;;;16.00;90.30;;;;;;5024025;28;20087;-78
2021/05/25 06:27:06;;;;;;;2.30;1.23;;;16.00;90.20;;;;;;5013451;28;20065;-78
2021/05/25 06:29:50;;;;;;;3.07;1.20;;;16.00;90.10;;;;;;5010937;28;20068;-78
2021/05/25 06:32:35;;;;;;;3.07;1.40;;;16.00;90.00;;;;;;4993428;28;20077;-78
2021/05/25 06:35:19;;;;;;;2.80;1.30;;;16.00;89.90;;;;;;4995290;28;20509;-75
2021/05/25 06:38:04;;;;;;;5.63;1.38;;;16.00;89.40;;;;;;5009030;28;20046;-77
2021/05/25 06:40:48;;;;;;;1.93;1.10;;;16.00;88.80;;;;;;4993299;28;20135;-72
2021/05/25 06:43:32;;;;;;;3.33;1.98;;;16.10;88.90;;;;;;5003150;28;20069;-73
2021/05/25 06:46:16;;;;;;;1.92;1.20;;;16.10;88.10;;;;;;5004473;28;20096;-75
2021/05/25 06:49:00;;;;;;;4.50;1.13;;;16.10;87.60;;;;;;5004158;28;20516;-75
2021/05/25 06:51:44;;;;;;;3.13;1.15;;;16.10;87.00;;;;;;5000290;28;20126;-76
2021/05/25 06:54:29;;;;;;;3.83;1.20;;;16.10;86.40;;;;;;4997817;28;20033;-76
2021/05/25 06:57:13;;;;;;;2.20;1.20;;;16.10;85.90;;;;;;4996683;28;20037;-76
2021/05/25 06:59:57;;;;;;;2.13;1.27;;;16.10;85.00;;;;;;4991884;28;20057;-76
2021/05/25 07:02:42;;;;;;;2.97;1.33;;;16.10;83.80;;;;;;5006068;28;20069;-76
2021/05/25 07:05:26;;;;;;;4.10;1.52;;;16.20;83.50;;;;;;5010538;28;20073;-76
2021/05/25 07:08:10;;;;;;;2.42;1.23;;;16.20;83.10;;;;;;5000479;28;20053;-76
2021/05/25 07:10:54;;;;;;;2.30;1.10;;;16.30;83.10;;;;;;4991643;28;20048;-76
2021/05/25 07:13:38;;;;;;;2.87;1.00;;;16.30;82.20;;;;;;5006114;28;20073;-75
2021/05/25 07:16:18;;;;;;;1.55;0.90;;;16.30;82.20;;;;;;5003316;28;20026;-75
2021/05/25 07:19:03;;;;;;;2.13;1.00;;;16.40;81.10;;;;;;5009391;28;20056;-75
2021/05/25 07:21:48;;;;;;;6.53;1.42;;;16.40;81.00;;;;;;5010735;28;20098;-75
2021/05/25 07:24:32;;;;;;;3.42;1.20;;;16.40;80.60;;;;;;5007706;28;20514;-75
2021/05/25 07:27:17;;;;;;;2.53;0.95;;;16.40;80.70;;;;;;5006556;28;20561;-75
2021/05/25 07:30:01;;;;;;;1.13;0.90;;;16.50;80.60;;;;;;4993911;28;20135;-75
2021/05/25 07:32:46;;;;;;;3.58;1.23;;;16.50;80.10;;;;;;5000679;28;20036;-75
2021/05/25 07:35:30;;;;;;;4.20;1.25;;;16.60;80.20;;;;;;5009884;28;20486;-75
2021/05/25 07:38:14;;;;;;;1.17;0.85;;;16.60;79.00;;;;;;5014388;28;20065;-75
2021/05/25 07:40:58;;;;;;;2.77;1.00;;;16.60;78.50;;;;;;5023710;28;20045;-75
2021/05/25 07:43:44;;;;;;;4.20;1.13;;;16.60;78.20;;;;;;4995549;28;20300;-75
2021/05/25 07:46:30;;;;;;;3.13;1.00;;;16.60;78.00;;;;;;5004119;28;20073;-75
2021/05/25 07:49:14;;;;;;;4.10;1.10;;;16.60;76.90;;;;;;5003853;28;20040;-75
2021/05/25 07:51:59;;;;;;;2.10;1.20;;;16.50;76.70;;;;;;5011063;28;20116;-75
2021/05/25 07:54:43;;;;;;;2.28;1.10;;;16.60;77.00;;;;;;5003341;28;20041;-74
2021/05/25 07:57:27;;;;;;;1.17;1.00;;;16.60;75.90;;;;;;5010192;28;20065;-74
2021/05/25 08:00:12;;;;;;;1.63;1.02;;;16.60;75.50;;;;;;4998125;28;20368;-70
2021/05/25 08:02:57;;;;;;;1.90;1.10;;;16.60;75.20;;;;;;5009324;28;20056;-81
2021/05/25 08:05:41;;;;;;;2.65;1.55;;;16.60;75.00;;;;;;5007450;28;20025;-75
2021/05/25 08:08:26;;;;;;;4.82;2.60;;;16.70;74.40;;;;;;5008174;28;20044;-74
2021/05/25 08:11:14;;;;;;;3.47;1.90;;;16.70;73.70;;;;;;5012029;28;20076;-74
2021/05/25 08:13:58;;;;;;;3.35;1.92;;;16.70;73.50;;;;;;5007142;28;20037;-74
2021/05/25 08:16:44;;;;;;;2.95;1.30;;;16.70;73.40;;;;;;4996167;28;20445;-75
2021/05/25 08:19:30;;;;;;;5.18;1.40;;;16.80;73.50;;;;;;5012550;28;20037;-74
2021/05/25 08:22:14;;;;;;;4.75;1.40;;;16.80;74.00;;;;;;5003479;28;20033;-75
2021/05/25 08:24:58;;;;;;;9.97;1.50;;;16.90;73.90;;;;;;5006091;28;20041;-75
2021/05/25 08:27:45;;;;;;;6.53;1.30;;;17.00;74.00;;;;;;5014749;28;20084;-74
2021/05/25 08:30:32;;;;;;;2.63;1.10;;;17.10;73.10;;;;;;5013289;28;20052;-74
2021/05/25 08:33:17;;;;;;;3.90;1.45;;;17.20;72.00;;;;;;5010971;28;20107;-75
2021/05/25 08:36:01;;;;;;;3.60;1.15;;;17.20;71.10;;;;;;5014199;28;20509;-75
2021/05/25 08:38:45;;;;;;;4.55;1.15;;;17.10;70.80;;;;;;4996313;28;20454;-73
2021/05/25 08:41:30;;;;;;;5.18;1.63;;;17.10;71.00;;;;;;5008620;28;20056;-74
2021/05/25 08:44:14;;;;;;;3.20;1.20;;;17.10;70.20;;;;;;4996193;28;20394;-75
2021/05/25 08:46:59;;;;;;;11.70;1.20;;;17.20;69.60;;;;;;5007911;28;20093;-74
2021/05/25 08:49:45;;;;;;;2.70;1.00;;;17.20;69.50;;;;;;5000619;28;20045;-74
2021/05/25 08:52:30;;;;;;;2.92;1.08;;;17.20;69.00;;;;;;5000606;28;20055;-74
2021/05/25 08:55:14;;;;;;;2.58;1.10;;;17.30;69.20;;;;;;5003840;28;20398;-73
2021/05/25 08:57:59;;;;;;;1.50;0.90;;;17.40;69.70;;;;;;5007916;28;20049;-75
2021/05/25 09:00:43;;;;;;;4.43;0.98;;;17.50;69.20;;;;;;5004331;28;20065;-74
2021/05/25 09:03:30;;;;;;;1.88;1.20;;;17.60;68.00;;;;;;5011074;28;20106;-74
2021/05/25 09:06:14;;;;;;;4.03;1.00;;;17.60;67.90;;;;;;5008144;28;20041;-74
2021/05/25 09:09:11;;;;;;;2.00;0.90;;;17.60;67.50;;;;;;4998834;28;20167;-73
2021/05/25 09:12:02;;;;;;;1.50;0.90;;;17.60;66.40;;;;;;5006237;28;20057;-74
2021/05/25 09:14:49;;;;;;;2.22;1.20;;;17.70;66.40;;;;;;4998430;28;20037;-75
2021/05/25 09:17:18;;;;;;;2.55;1.08;;;17.70;65.70;;;;;;5000479;28;20100;-74
2021/05/25 09:20:06;;;;;;;2.80;1.00;;;17.80;65.70;;;;;;5005698;28;20057;-74
2021/05/25 09:22:50;;;;;;;0.80;0.70;;;17.80;65.70;;;;;;5009519;28;20076;-74
2021/05/25 09:25:34;;;;;;;3.53;1.10;;;17.80;65.70;;;;;;4993802;28;20072;-74
2021/05/25 09:28:20;;;;;;;0.88;0.80;;;17.80;65.10;;;;;;5000429;28;20053;-74
2021/05/25 09:31:05;;;;;;;2.60;1.00;;;17.90;64.70;;;;;;4993941;28;20069;-74
2021/05/25 09:34:09;;;;;;;1.23;0.80;;;17.90;64.70;;;;;;4996292;28;20048;-73
2021/05/25 09:37:09;;;;;;;2.58;1.90;;;18.20;64.80;;;;;;5010752;28;20069;-74
2021/05/25 09:39:54;;;;;;;3.55;1.13;;;18.30;64.70;;;;;;4997252;28;20085;-74
2021/05/25 09:42:38;;;;;;;;;;;18.40;63.70;;;;;;5017578;28;20063;-74
2021/05/25 09:45:22;;;;;;;5.00;1.02;;;18.50;64.10;;;;;;5006060;28;19916;-74
2021/05/25 09:48:07;;;;;;;2.08;1.00;;;18.60;63.50;;;;;;5000137;28;20049;-74
2021/05/25 09:50:54;;;;;;;1.45;1.00;;;18.60;63.70;;;;;;5009489;28;20414;-79
2021/05/25 09:53:46;;;;;;;4.53;1.30;;;18.80;63.20;;;;;;5009736;28;20036;-72
2021/05/25 09:56:32;;;;;;;1.80;0.95;;;18.90;62.30;;;;;;5002902;28;20083;-71
2021/05/25 09:59:36;;;;;;;3.00;0.90;;;19.00;61.50;;;;;;5008104;28;20061;-74
2021/05/25 10:02:22;;;;;;;1.63;1.00;;;19.10;61.90;;;;;;5003075;28;20104;-75
2021/05/25 10:05:08;;;;;;;2.35;1.05;;;19.30;61.00;;;;;;5007486;28;20100;-74
2021/05/25 10:07:52;;;;;;;1.83;1.08;;;19.40;60.80;;;;;;5008724;28;20124;-75
2021/05/25 10:10:36;;;;;;;1.97;1.00;;;19.60;60.70;;;;;;5019420;28;20044;-75
2021/05/25 10:13:23;;;;;;;1.88;1.00;;;19.80;60.00;;;;;;5019628;28;20283;-75
2021/05/25 10:16:09;;;;;;;3.92;0.98;;;19.80;59.00;;;;;;5009028;28;20064;-75
2021/05/25 10:22:07;;;;;;;2.85;1.17;;;19.70;57.60;;;;;;5012479;28;20453;-74
2021/05/25 10:24:53;;;;;;;2.37;1.20;;;19.50;56.80;;;;;;5000971;28;20041;-75
2021/05/25 10:27:38;;;;;;;5.35;1.80;;;19.40;57.20;;;;;;5001138;28;20036;-74
2021/05/25 10:30:22;;;;;;;1.77;1.08;;;19.30;56.70;;;;;;4994798;28;20045;-75
2021/05/25 10:33:06;;;;;;;2.50;1.20;;;19.40;56.60;;;;;;4999900;28;20096;-74
2021/05/25 10:35:55;;;;;;;1.65;1.00;;;19.40;56.20;;;;;;5011376;28;20449;-74
2021/05/25 10:38:46;;;;;;;3.03;1.20;;;19.40;56.30;;;;;;5005072;28;20053;-74
2021/05/25 10:41:32;;;;;;;1.95;1.05;;;19.40;56.00;;;;;;5010241;28;20104;-75
2021/05/25 10:44:46;;;;;;;1.10;0.90;;;19.30;55.10;;;;;;5001857;28;20103;-79
2021/05/25 10:47:49;;;;;;;3.42;0.93;;;19.40;54.50;;;;;;4996830;28;20068;-73
2021/05/25 10:50:38;;;;;;;4.07;1.27;;;19.10;55.00;;;;;;5006082;28;20045;-74
2021/05/25 10:53:27;;;;;;;4.40;1.48;;;18.80;56.60;;;;;;5013077;28;20442;-74
2021/05/25 10:56:25;;;;;;;1.40;0.98;;;18.70;58.00;;;;;;4992414;28;20080;-74
2021/05/25 10:59:10;;;;;;;4.82;1.40;;;18.60;58.70;;;;;;5007671;28;20778;-73
2021/05/25 11:01:56;;;;;;;5.53;1.45;;;18.50;59.00;;;;;;5007909;28;20052;-74
2021/05/25 11:04:40;;;;;;;3.13;1.08;;;18.40;60.30;;;;;;5001661;28;20096;-74
2021/05/25 11:07:37;;;;;;;2.07;1.20;;;18.20;61.90;;;;;;5012779;28;20083;-72
2021/05/25 11:10:27;;;;;;;3.13;1.50;;;17.90;63.40;;;;;;5013324;28;20040;-73
2021/05/25 11:13:15;;;;;;;3.05;1.40;;;17.90;65.30;;;;;;5008731;28;20160;-74
2021/05/25 11:16:12;;;;;;;2.95;1.80;;;17.80;66.40;;;;;;5010114;28;20044;-74
2021/05/25 11:21:41;;;;;;;2.10;1.23;;;17.80;68.30;;;;;;4993540;28;20077;-74
2021/05/25 11:24:36;;;;;;;3.05;1.20;;;17.70;68.00;;;;;;4998071;28;20036;-74
2021/05/25 11:27:45;;;;;;;1.92;1.00;;;17.70;69.10;;;;;;5007596;28;20151;-74
2021/05/25 11:30:29;;;;;;;1.85;1.20;;;17.80;69.20;;;;;;4999413;28;20076;-74
2021/05/25 11:33:13;;;;;;;3.95;1.17;;;17.70;68.80;;;;;;5011957;28;20040;-74
2021/05/25 11:36:00;;;;;;;3.80;1.33;;;17.70;69.10;;;;;;5010538;28;20122;-74
2021/05/25 11:38:48;;;;;;;2.40;1.35;;;17.60;69.80;;;;;;5011140;28;20037;-74
2021/05/25 11:41:33;;;;;;;3.35;2.00;;;17.60;69.80;;;;;;5011895;28;20087;-74
2021/05/25 11:44:19;;;;;;;3.95;1.20;;;17.60;70.40;;;;;;5001500;28;20500;-74
2021/05/25 11:47:07;;;;;;;2.35;1.40;;;17.60;70.70;;;;;;5004643;28;20501;-74
2021/05/25 11:49:52;;;;;;;2.38;1.15;;;17.70;71.30;;;;;;5013004;28;20096;-74
2021/05/25 11:52:39;;;;;;;;;;;17.80;71.20;;;;;;5016107;28;20411;-74
2021/05/25 11:55:26;;;;;;;3.60;1.40;;;18.00;71.20;;;;;;5005296;28;19916;-74
2021/05/25 11:58:10;;;;;;;3.05;1.52;;;18.00;71.20;;;;;;5014544;28;20037;-74
2021/05/25 12:00:54;;;;;;;2.33;1.30;;;18.10;71.80;;;;;;5009578;28;20087;-73
2021/05/25 12:03:38;;;;;;;1.27;0.87;;;18.30;71.40;;;;;;5014028;28;20084;-74
2021/05/25 12:06:22;;;;;;;3.20;1.20;;;18.50;67.90;;;;;;5010967;28;20848;-74
2021/05/25 12:09:11;;;;;;;2.83;1.70;;;18.70;64.80;;;;;;5011012;28;20068;-73
2021/05/25 12:12:01;;;;;;;3.33;1.40;;;18.90;62.20;;;;;;5013111;28;20084;-74
2021/05/25 12:14:46;;;;;;;2.63;1.13;;;19.10;59.70;;;;;;5004382;28;20048;-74
2021/05/25 12:17:30;;;;;;;2.65;1.38;;;19.10;58.80;;;;;;5013097;28;20535;-73
2021/05/25 12:20:17;;;;;;;6.77;1.43;;;19.10;58.10;;;;;;5011454;28;20080;-73
2021/05/25 12:23:07;;;;;;;2.25;1.23;;;19.10;58.00;;;;;;5015190;28;20048;-73
2021/05/25 12:25:53;;;;;;;2.92;0.93;;;19.00;58.00;;;;;;5003125;28;20088;-74
2021/05/25 12:28:39;;;;;;;3.45;1.40;;;19.20;57.70;;;;;;5013459;28;20033;-74
2021/05/25 12:31:29;;;;;;;4.43;0.93;;;19.20;57.40;;;;;;4997366;28;20133;-74
2021/05/25 12:34:16;;;;;;;1.95;1.10;;;19.30;58.40;;;;;;5010323;28;20576;-73
2021/05/25 12:37:01;;;;;;;1.05;0.82;;;19.40;56.90;;;;;;5013597;28;20037;-73
2021/05/25 12:39:46;;;;;;;1.80;0.98;;;19.50;55.90;;;;;;5014257;28;20037;-74
2021/05/25 12:42:41;;;;;;;2.05;1.00;;;19.50;54.60;;;;;;5007171;28;20073;-74
2021/05/25 12:45:30;;;;;;;2.70;1.02;;;19.60;53.80;;;;;;5007956;28;20088;-73
2021/05/25 12:48:15;;;;;;;1.05;0.88;;;19.70;53.00;;;;;;5024432;28;20235;-74
2021/05/25 12:50:59;;;;;;;1.65;1.13;;;19.80;52.50;;;;;;5008627;28;20120;-73
2021/05/25 12:53:56;;;;;;;1.15;0.73;;;20.00;52.20;;;;;;4996047;28;20041;-73
2021/05/25 12:56:55;;;;;;;2.25;0.82;;;20.10;52.30;;;;;;4994776;28;20041;-74
2021/05/25 12:59:39;;;;;;;2.83;0.70;;;20.20;51.40;;;;;;5003583;28;20040;-73
2021/05/25 13:02:37;;;;;;;1.65;0.93;;;20.20;51.20;;;;;;5011652;28;20049;-73
2021/05/25 13:05:26;;;;;;;1.83;1.05;;;20.20;51.50;;;;;;5000869;28;20136;-73
2021/05/25 13:08:20;;;;;;;4.60;1.25;;;20.10;51.20;;;;;;5006390;28;20022;-74
2021/05/25 13:11:09;;;;;;;2.78;0.88;;;20.00;50.70;;;;;;5011137;28;20049;-74
2021/05/25 13:13:53;;;;;;;1.77;0.90;;;19.90;50.20;;;;;;5007884;28;20511;-74
2021/05/25 13:16:28;;;;;;;6.63;1.05;;;19.80;50.20;;;;;;5005522;28;20112;-75
2021/05/25 13:18:54;;;;;;;3.10;0.88;;;19.60;49.90;;;;;;4995296;28;20026;-74
2021/05/25 13:21:22;;;;;;;1.13;0.90;;;19.50;50.40;;;;;;4994814;28;20398;-73
2021/05/25 13:23:56;;;;;;;2.67;1.00;;;19.30;50.70;;;;;;5010891;28;20478;-74
2021/05/25 13:26:31;;;;;;;1.87;0.80;;;19.20;50.80;;;;;;4994243;28;20108;-73
2021/05/25 13:29:00;;;;;;;3.65;1.65;;;19.10;51.30;;;;;;5006291;28;20295;-73
2021/05/25 13:31:28;;;;;;;1.90;0.90;;;19.00;51.70;;;;;;5012770;28;20045;-73
2021/05/25 13:33:55;;;;;;;2.10;1.00;;;19.00;53.30;;;;;;5000812;28;20034;-73
2021/05/25 13:36:24;;;;;;;2.42;1.02;;;19.10;53.80;;;;;;5000102;28;20026;-73
2021/05/25 13:38:49;;;;;;;1.38;1.00;;;19.20;54.30;;;;;;5001215;28;20042;-73
2021/05/25 13:41:18;;;;;;;2.25;0.98;;;19.40;54.70;;;;;;5009359;28;20121;-73
2021/05/25 13:43:46;;;;;;;2.85;0.98;;;19.40;54.70;;;;;;5009198;28;20403;-72
2021/05/25 13:46:12;;;;;;;1.40;0.77;;;19.50;54.50;;;;;;5012497;28;20030;-72
2021/05/25 13:48:37;;;;;;;2.05;1.13;;;19.70;54.20;;;;;;5010445;28;20076;-72
2021/05/25 13:51:03;;;;;;;3.00;1.27;;;19.80;54.10;;;;;;4997501;28;20415;-74
2021/05/25 13:53:29;;;;;;;2.58;0.95;;;19.80;53.30;;;;;;5000711;28;20068;-73
2021/05/25 13:55:56;;;;;;;1.23;1.02;;;19.80;52.80;;;;;;5011993;28;20428;-73
2021/05/25 13:58:23;;;;;;;1.23;0.80;;;19.70;52.70;;;;;;5008915;28;20029;-74
2021/05/25 14:01:11;;;;;;;2.38;1.02;;;19.60;53.40;;;;;;5002798;28;20517;-75
2021/05/25 14:03:37;;;;;;;4.05;1.90;;;19.50;54.30;;;;;;5001228;28;20109;-73
2021/05/25 14:06:03;;;;;;;4.57;2.60;;;19.30;54.00;;;;;;5011405;28;20112;-74
2021/05/25 14:08:30;;;;;;;2.33;1.10;;;19.20;54.40;;;;;;5008121;28;20054;-74
2021/05/25 14:10:55;;;;;;;2.60;1.15;;;19.10;55.70;;;;;;5009711;28;20589;-74
2021/05/25 14:13:21;;;;;;;2.97;1.40;;;19.00;56.90;;;;;;5011804;28;20136;-74
2021/05/25 14:15:46;;;;;;;2.03;1.25;;;18.90;58.60;;;;;;5007133;28;20501;-73
2021/05/25 14:18:12;;;;;;;2.65;1.42;;;18.90;59.80;;;;;;5000114;28;20058;-74
2021/05/25 14:20:39;;;;;;;2.22;1.27;;;19.00;60.10;;;;;;5011529;28;20029;-73